Wheelwright, Kentucky
Current Conditions -  °F | °C
As of 1:55 PM on Sunday 23 Nov 2014 (Local Time) from KPBX Reporting Station
Moderate Rain Moderate Rain  
Wind Chill: 57°   Ceiling: 8500
Heat Index: 57°   Visibility: 10mi
Dew Point: 47°   Wind: 9mph
Humidity: 70%   Direction: 140°SE
Pressure: 29.85"   Gusts: 16mph
Location:  37.33°N, 82.72°W
Report Text: KPBX 231855Z AUTO 14008G14KT 10SM RA SCT075 BKN085 OVC090 14/09 A2985 RMK AO2 T01390085
Loading
Personal Weather Stations






























Interactive Weather Map New forecast layout! Learn more

10-Day Weather Forecast

Advertisements
Track Severe Weather on mobile